Time;durP1;ratioP1;P1;durP2;ratioP2;P2;SDS_P1;SDS_P2;PMS_P1;PMS_P2;Temp;Humidity;BMP_temperature;BMP_pressure;BME280_temperature;BME280_humidity;BME280_pressure;Samples;Min_cycle;Max_cycle;Signal;HPM_P1;HPM_P2
2023/12/18 06:01:03;;;;;;;;;;;;;;;;;;5729780;23;20378;-48
2023/12/18 06:03:29;;;;;;;;;;;;;;;;;;4989829;28;20028;-45
2023/12/18 06:05:55;;;;;;;;;;;;;;;;;;4990248;28;19961;-47
2023/12/18 06:08:21;;;;;;;;;;;;;;;;;;4987774;28;20424;-44
2023/12/18 06:10:47;;;;;;;;;;;;;;;;;;4989887;28;19910;-45
2023/12/18 06:13:13;;;;;;;;;;;;;;;;;;4989937;28;19909;-45
2023/12/18 06:15:38;;;;;;;;;;;;;;;;;;4990211;28;19960;-45
2023/12/18 06:18:04;;;;;;;;;;;;;;;;;;4990192;28;20369;-45
2023/12/18 06:20:30;;;;;;;;;;;;;;;;;;4991361;28;19914;-48
2023/12/18 06:22:56;;;;;;;;;;;;;;;;;;4990932;28;19914;-46
2023/12/18 06:25:23;;;;;;;;;;;;;;;;;;4991079;28;19949;-47
2023/12/18 06:27:49;;;;;;;;;;;;;;;;;;4989039;28;19914;-47
2023/12/18 06:30:15;;;;;;;;;;;;;;;;;;4991169;28;19910;-45
2023/12/18 06:32:41;;;;;;;;;;;;;;;;;;4990031;28;20467;-45
2023/12/18 06:35:07;;;;;;;;;;;;;;;;;;4985314;28;19997;-47
2023/12/18 06:37:33;;;;;;;;;;;;;;;;;;4971508;28;19917;-44
2023/12/18 06:39:59;;;;;;;;;;;;;;;;;;4983450;28;20287;-44
2023/12/18 06:42:25;;;;;;;;;;;;;;;;;;4990927;28;19921;-46
2023/12/18 06:44:51;;;;;;;;;;;;;;;;;;4990267;28;19914;-45
2023/12/18 06:47:17;;;;;;;;;;;;;;;;;;4991120;28;19935;-45
2023/12/18 06:49:42;;;;;;;;;;;;;;;;;;4990881;28;19916;-45
2023/12/18 06:52:08;;;;;;;;;;;;;;;;;;4978812;28;20005;-44
2023/12/18 06:54:34;;;;;;;;;;;;;;;;;;4984529;28;19980;-45
2023/12/18 06:57:00;;;;;;;;;;;;;;;;;;4990703;28;19917;-47
2023/12/18 06:59:26;;;;;;;;;;;;;;;;;;4990268;28;19921;-45
2023/12/18 07:01:52;;;;;;;;;;;;;;;;;;4991745;28;19971;-48
2023/12/18 07:04:18;;;;;;;;;;;;;;;;;;4992258;28;19925;-47
2023/12/18 07:06:44;;;;;;;;;;;;;;;;;;4993823;28;19940;-45
2023/12/18 07:09:10;;;;;;;;;;;;;;;;;;4993348;28;20380;-48
2023/12/18 07:11:36;;;;;;;;;;;;;;;;;;4993384;28;19914;-47
2023/12/18 07:14:02;;;;;;;;;;;;;;;;;;4991488;28;21039;-47
2023/12/18 07:16:27;;;;;;;;;;;;;;;;;;4983512;28;19914;-45
2023/12/18 07:18:53;;;;;;;;;;;;;;;;;;4994247;28;20361;-44
2023/12/18 07:21:19;;;;;;;;;;;;;;;;;;4993128;28;19953;-47
2023/12/18 07:23:45;;;;;;;;;;;;;;;;;;4994004;28;19916;-46
2023/12/18 07:26:13;;;;;;;;;;;;;;;;;;4992903;28;19914;-46
2023/12/18 07:28:39;;;;;;;;;;;;;;;;;;4991480;28;19913;-45
2023/12/18 07:31:05;;;;;;;;;;;;;;;;;;4992264;28;20461;-48
2023/12/18 07:33:31;;;;;;;;;;;;;;;;;;4992280;28;20420;-45
2023/12/18 07:35:57;;;;;;;;;;;;;;;;;;4992663;28;19917;-45
2023/12/18 07:38:23;;;;;;;;;;;;;;;;;;4993701;28;19910;-46
2023/12/18 07:40:49;;;;;;;;;;;;;;;;;;4993944;28;19945;-48
2023/12/18 07:43:15;;;;;;;;;;;;;;;;;;4990281;28;20311;-46
2023/12/18 07:45:41;;;;;;;;;;;;;;;;;;4994172;28;20412;-45
2023/12/18 07:48:07;;;;;;;;;;;;;;;;;;4993822;28;19960;-47
2023/12/18 07:50:33;;;;;;;;;;;;;;;;;;4993764;28;19914;-45
2023/12/18 07:52:59;;;;;;;;;;;;;;;;;;4991877;28;19964;-46
2023/12/18 07:55:25;;;;;;;;;;;;;;;;;;4992465;28;19941;-48
2023/12/18 07:57:51;;;;;;;;;;;;;;;;;;4993649;28;19913;-46
2023/12/18 08:00:16;;;;;;;;;;;;;;;;;;4990761;28;19994;-46
2023/12/18 08:02:42;;;;;;;;;;;;;;;;;;4987415;28;19922;-48
2023/12/18 08:05:09;;;;;;;;;;;;;;;;;;4987910;28;20384;-44
2023/12/18 08:07:35;;;;;;;;;;;;;;;;;;4991751;28;19925;-45
2023/12/18 08:10:01;;;;;;;;;;;;;;;;;;4992600;28;19910;-44
2023/12/18 08:12:27;;;;;;;;;;;;;;;;;;4991582;28;19913;-47
2023/12/18 08:14:54;;;;;;;;;;;;;;;;;;4993251;28;19909;-47
2023/12/18 08:17:19;;;;;;;;;;;;;;;;;;4992339;28;20008;-44
2023/12/18 08:19:46;;;;;;;;;;;;;;;;;;4991392;28;20000;-44
2023/12/18 08:22:11;;;;;;;;;;;;;;;;;;4993471;28;19913;-46
2023/12/18 08:24:37;;;;;;;;;;;;;;;;;;4992971;28;19916;-46
2023/12/18 08:27:03;;;;;;;;;;;;;;;;;;4993197;28;19910;-46
2023/12/18 08:29:29;;;;;;;;;;;;;;;;;;4992217;28;19913;-45
2023/12/18 08:31:55;;;;;;;;;;;;;;;;;;4991594;28;20382;-46
2023/12/18 08:34:21;;;;;;;;;;;;;;;;;;4992002;28;19914;-46
2023/12/18 08:36:47;;;;;;;;;;;;;;;;;;4993013;28;19917;-46
2023/12/18 08:39:13;;;;;;;;;;;;;;;;;;4992097;28;19910;-45
2023/12/18 08:41:41;;;;;;;;;;;;;;;;;;4990984;28;19922;-44
2023/12/18 08:44:07;;;;;;;;;;;;;;;;;;4990754;28;19921;-47
2023/12/18 08:46:33;;;;;;;;;;;;;;;;;;4991779;28;20300;-45
2023/12/18 08:48:59;;;;;;;;;;;;;;;;;;4990611;28;19913;-46
2023/12/18 08:51:25;;;;;;;;;;;;;;;;;;4991125;28;20024;-47
2023/12/18 08:53:51;;;;;;;;;;;;;;;;;;4992425;28;19965;-48
2023/12/18 08:56:17;;;;;;;;;;;;;;;;;;4992451;28;19910;-45
2023/12/18 08:58:43;;;;;;;;;;;;;;;;;;4992806;28;20265;-45
2023/12/18 09:01:09;;;;;;;;;;;;;;;;;;4991371;28;19940;-45
2023/12/18 09:03:35;;;;;;;;;;;;;;;;;;4990983;28;19925;-48
2023/12/18 09:06:01;;;;;;;;;;;;;;;;;;4989858;28;19913;-44
2023/12/18 09:08:27;;;;;;;;;;;;;;;;;;4990283;28;19921;-45
2023/12/18 09:10:53;;;;;;;;;;;;;;;;;;4987752;28;19914;-45
2023/12/18 09:13:19;;;;;;;;;;;;;;;;;;4981475;28;19960;-44
2023/12/18 09:15:45;;;;;;;;;;;;;;;;;;4991144;28;20033;-46
2023/12/18 09:18:11;;;;;;;;;;;;;;;;;;4983343;28;19925;-45
2023/12/18 09:20:37;;;;;;;;;;;;;;;;;;4985202;28;19956;-46
2023/12/18 09:23:08;;;;;;;;;;;;;;;;;;4991178;28;19948;-49
2023/12/18 09:25:34;;;;;;;;;;;;;;;;;;4992005;28;20471;-46
2023/12/18 09:28:00;;;;;;;;;;;;;;;;;;4986852;28;20009;-47
2023/12/18 09:30:26;;;;;;;;;;;;;;;;;;4989567;28;19921;-48
2023/12/18 09:32:52;;;;;;;;;;;;;;;;;;4990673;28;19968;-46
2023/12/18 09:35:18;;;;;;;;;;;;;;;;;;4992087;28;19917;-46
2023/12/18 09:37:43;;;;;;;;;;;;;;;;;;5009516;28;19914;-48
2023/12/18 09:40:09;;;;;;;;;;;;;;;;;;4987497;28;19997;-45
2023/12/18 09:42:37;;;;;;;;;;;;;;;;;;4974084;28;19918;-48
2023/12/18 09:45:04;;;;;;;;;;;;;;;;;;4976632;28;19916;-46
2023/12/18 09:47:30;;;;;;;;;;;;;;;;;;5003187;28;19917;-46
2023/12/18 09:49:56;;;;;;;;;;;;;;;;;;4992212;28;20280;-47
2023/12/18 09:52:22;;;;;;;;;;;;;;;;;;4979299;28;20441;-45
2023/12/18 09:54:49;;;;;;;;;;;;;;;;;;4972773;28;19914;-47
2023/12/18 09:57:15;;;;;;;;;;;;;;;;;;4973126;28;20270;-47
2023/12/18 09:59:40;;;;;;;;;;;;;;;;;;4972754;28;19933;-48
2023/12/18 10:02:06;;;;;;;;;;;;;;;;;;4972803;28;19926;-45
2023/12/18 10:04:32;;;;;;;;;;;;;;;;;;4985597;28;19917;-48
2023/12/18 10:06:59;;;;;;;;;;;;;;;;;;4992063;28;20004;-45
2023/12/18 10:09:25;;;;;;;;;;;;;;;;;;4991785;28;19922;-45
2023/12/18 10:11:50;;;;;;;;;;;;;;;;;;4992004;28;20397;-49
2023/12/18 10:14:16;;;;;;;;;;;;;;;;;;4991928;28;19910;-46
2023/12/18 10:16:42;;;;;;;;;;;;;;;;;;4992302;28;19917;-48
2023/12/18 10:19:08;;;;;;;;;;;;;;;;;;4992018;28;20352;-46
2023/12/18 10:21:34;;;;;;;;;;;;;;;;;;4991854;28;19914;-44
2023/12/18 10:24:00;;;;;;;;;;;;;;;;;;4991346;28;19917;-47
2023/12/18 10:26:26;;;;;;;;;;;;;;;;;;4991879;28;19910;-45
2023/12/18 10:28:52;;;;;;;;;;;;;;;;;;4991827;28;19934;-45
2023/12/18 10:31:18;;;;;;;;;;;;;;;;;;4991021;28;20388;-44
2023/12/18 10:33:44;;;;;;;;;;;;;;;;;;5001566;28;19924;-48
2023/12/18 10:36:10;;;;;;;;;;;;;;;;;;4996829;28;19913;-49
2023/12/18 10:38:39;;;;;;;;;;;;;;;;;;4999197;28;20005;-46
2023/12/18 10:41:05;;;;;;;;;;;;;;;;;;5002960;28;20333;-45
2023/12/18 10:43:31;;;;;;;;;;;;;;;;;;5014575;28;19914;-45
2023/12/18 10:45:57;;;;;;;;;;;;;;;;;;5001311;28;19909;-45
2023/12/18 10:48:22;;;;;;;;;;;;;;;;;;5014918;28;19916;-45
2023/12/18 10:50:48;;;;;;;;;;;;;;;;;;5015233;28;20011;-45
2023/12/18 10:53:14;;;;;;;;;;;;;;;;;;5015631;28;19920;-46
2023/12/18 10:55:40;;;;;;;;;;;;;;;;;;5015132;28;19964;-46
2023/12/18 10:58:06;;;;;;;;;;;;;;;;;;4999410;28;20428;-45
2023/12/18 11:00:32;;;;;;;;;;;;;;;;;;4990153;28;19914;-47
2023/12/18 11:02:58;;;;;;;;;;;;;;;;;;4985046;28;19922;-48
2023/12/18 11:05:25;;;;;;;;;;;;;;;;;;4995362;28;19910;-45
2023/12/18 11:07:50;;;;;;;;;;;;;;;;;;4995271;28;20419;-44
2023/12/18 11:10:17;;;;;;;;;;;;;;;;;;4995376;28;19944;-47
2023/12/18 11:12:42;;;;;;;;;;;;;;;;;;4994504;28;20379;-45
2023/12/18 11:15:08;;;;;;;;;;;;;;;;;;4991595;28;19933;-45
2023/12/18 11:17:34;;;;;;;;;;;;;;;;;;4989019;28;19921;-47
2023/12/18 11:20:00;;;;;;;;;;;;;;;;;;4991841;28;19921;-47
2023/12/18 11:22:26;;;;;;;;;;;;;;;;;;4991261;28;20012;-46
2023/12/18 11:24:52;;;;;;;;;;;;;;;;;;4991351;28;19925;-45
2023/12/18 11:27:18;;;;;;;;;;;;;;;;;;4990773;28;19914;-46
2023/12/18 11:29:45;;;;;;;;;;;;;;;;;;4982717;28;20292;-45
2023/12/18 11:32:14;;;;;;;;;;;;;;;;;;4992258;28;19968;-46
2023/12/18 11:34:40;;;;;;;;;;;;;;;;;;4991856;28;19957;-45
2023/12/18 11:37:06;;;;;;;;;;;;;;;;;;4991737;28;19922;-45
2023/12/18 11:39:32;;;;;;;;;;;;;;;;;;4991492;28;19920;-45
2023/12/18 11:41:58;;;;;;;;;;;;;;;;;;4980042;28;20022;-44
2023/12/18 11:44:24;;;;;;;;;;;;;;;;;;4982016;28;19961;-47
2023/12/18 11:46:50;;;;;;;;;;;;;;;;;;4986703;28;19953;-44
2023/12/18 11:49:16;;;;;;;;;;;;;;;;;;4993241;28;19975;-45
2023/12/18 11:51:41;;;;;;;;;;;;;;;;;;4993410;28;19906;-45
2023/12/18 11:54:07;;;;;;;;;;;;;;;;;;4990661;28;19914;-45
2023/12/18 11:56:33;;;;;;;;;;;;;;;;;;4992009;28;19913;-46
2023/12/18 11:58:59;;;;;;;;;;;;;;;;;;4991552;28;19923;-46
2023/12/18 12:01:26;;;;;;;;;;;;;;;;;;4992507;28;20428;-45
2023/12/18 12:03:51;;;;;;;;;;;;;;;;;;4989878;28;20005;-48
2023/12/18 12:06:17;;;;;;;;;;;;;;;;;;4990202;28;20342;-46
2023/12/18 12:08:43;;;;;;;;;;;;;;;;;;4991567;28;19918;-45
2023/12/18 12:11:09;;;;;;;;;;;;;;;;;;4990901;28;20373;-45
2023/12/18 12:13:35;;;;;;;;;;;;;;;;;;4991314;28;19914;-46
2023/12/18 12:16:01;;;;;;;;;;;;;;;;;;4989702;28;19921;-44
2023/12/18 12:18:27;;;;;;;;;;;;;;;;;;4992122;28;19909;-45
2023/12/18 12:20:53;;;;;;;;;;;;;;;;;;4989755;28;19976;-45
2023/12/18 12:23:19;;;;;;;;;;;;;;;;;;4982714;28;20364;-47
2023/12/18 12:25:46;;;;;;;;;;;;;;;;;;4988053;28;19922;-46
2023/12/18 12:28:12;;;;;;;;;;;;;;;;;;4991260;28;20329;-46
2023/12/18 12:30:38;;;;;;;;;;;;;;;;;;4990355;28;20013;-45
2023/12/18 12:33:04;;;;;;;;;;;;;;;;;;4988416;28;19989;-46
2023/12/18 12:35:30;;;;;;;;;;;;;;;;;;4983521;28;19921;-45
2023/12/18 12:37:56;;;;;;;;;;;;;;;;;;4971654;28;20552;-48
2023/12/18 12:40:22;;;;;;;;;;;;;;;;;;4984864;28;19956;-49
2023/12/18 12:42:47;;;;;;;;;;;;;;;;;;4989837;28;19925;-49
2023/12/18 12:45:13;;;;;;;;;;;;;;;;;;4991611;28;19921;-49
2023/12/18 12:47:39;;;;;;;;;;;;;;;;;;4990534;28;19929;-49
2023/12/18 12:50:05;;;;;;;;;;;;;;;;;;4992659;28;20011;-46
2023/12/18 12:52:31;;;;;;;;;;;;;;;;;;4989467;28;20369;-45
2023/12/18 12:54:57;;;;;;;;;;;;;;;;;;4988223;28;19914;-47
2023/12/18 12:57:23;;;;;;;;;;;;;;;;;;4995670;28;19957;-46
2023/12/18 12:59:50;;;;;;;;;;;;;;;;;;4993284;28;19914;-46
2023/12/18 13:02:16;;;;;;;;;;;;;;;;;;4989673;28;19918;-45
2023/12/18 13:04:42;;;;;;;;;;;;;;;;;;4990226;28;19913;-45
2023/12/18 13:07:08;;;;;;;;;;;;;;;;;;4990380;28;20025;-48
2023/12/18 13:09:34;;;;;;;;;;;;;;;;;;4989393;28;19925;-46
2023/12/18 13:12:04;;;;;;;;;;;;;;;;;;4989942;28;19910;-46
2023/12/18 13:14:30;;;;;;;;;;;;;;;;;;4986757;28;19918;-46
2023/12/18 13:16:55;;;;;;;;;;;;;;;;;;4987953;28;20354;-48
2023/12/18 13:19:21;;;;;;;;;;;;;;;;;;4988428;28;19914;-44
2023/12/18 13:21:47;;;;;;;;;;;;;;;;;;4987836;28;19910;-44
2023/12/18 13:24:13;;;;;;;;;;;;;;;;;;4988370;28;19914;-44
2023/12/18 13:26:39;;;;;;;;;;;;;;;;;;4983474;28;19941;-43
2023/12/18 13:29:05;;;;;;;;;;;;;;;;;;4983833;28;19988;-43
2023/12/18 13:31:33;;;;;;;;;;;;;;;;;;4988465;28;19922;-43
2023/12/18 13:33:59;;;;;;;;;;;;;;;;;;4972111;28;19965;-44
2023/12/18 13:36:25;;;;;;;;;;;;;;;;;;4985257;28;19914;-43
2023/12/18 13:38:50;;;;;;;;;;;;;;;;;;4969322;28;19948;-43
2023/12/18 13:41:17;;;;;;;;;;;;;;;;;;4969959;28;20573;-43
2023/12/18 13:43:43;;;;;;;;;;;;;;;;;;4969906;28;19961;-44
2023/12/18 13:46:10;;;;;;;;;;;;;;;;;;4970504;28;19964;-43
2023/12/18 13:48:36;;;;;;;;;;;;;;;;;;4985580;28;20344;-43
2023/12/18 13:51:01;;;;;;;;;;;;;;;;;;4985715;28;19921;-44
2023/12/18 13:53:27;;;;;;;;;;;;;;;;;;4989638;28;20056;-43
2023/12/18 13:55:53;;;;;;;;;;;;;;;;;;4987837;28;19910;-43
2023/12/18 13:58:19;;;;;;;;;;;;;;;;;;4982646;28;19914;-43
2023/12/18 14:00:46;;;;;;;;;;;;;;;;;;4982874;28;19918;-43
2023/12/18 14:03:12;;;;;;;;;;;;;;;;;;4985847;28;19921;-44
2023/12/18 14:05:38;;;;;;;;;;;;;;;;;;4986916;28;19910;-43
2023/12/18 14:08:03;;;;;;;;;;;;;;;;;;4986844;28;19913;-44
2023/12/18 14:10:29;;;;;;;;;;;;;;;;;;4987972;28;19910;-44
2023/12/18 14:12:55;;;;;;;;;;;;;;;;;;4986263;28;19969;-44
2023/12/18 14:15:21;;;;;;;;;;;;;;;;;;4987025;28;19967;-44
2023/12/18 14:17:47;;;;;;;;;;;;;;;;;;4986859;28;20291;-43
2023/12/18 14:20:13;;;;;;;;;;;;;;;;;;4987432;28;19953;-44
2023/12/18 14:22:39;;;;;;;;;;;;;;;;;;4986484;28;20297;-43
2023/12/18 14:25:05;;;;;;;;;;;;;;;;;;4985580;28;20012;-42
2023/12/18 14:27:31;;;;;;;;;;;;;;;;;;4968354;28;19914;-44
2023/12/18 14:29:57;;;;;;;;;;;;;;;;;;4967795;28;19917;-44
2023/12/18 14:32:23;;;;;;;;;;;;;;;;;;4999524;28;19918;-42
2023/12/18 14:34:49;;;;;;;;;;;;;;;;;;4986310;28;19964;-44
2023/12/18 14:37:16;;;;;;;;;;;;;;;;;;4987112;28;19964;-43
2023/12/18 14:39:42;;;;;;;;;;;;;;;;;;4986715;28;19926;-44
2023/12/18 14:42:08;;;;;;;;;;;;;;;;;;4985576;28;20008;-42
2023/12/18 14:44:34;;;;;;;;;;;;;;;;;;4986277;28;19964;-43
2023/12/18 14:47:00;;;;;;;;;;;;;;;;;;4987458;28;20324;-42
2023/12/18 14:49:26;;;;;;;;;;;;;;;;;;4985958;28;19929;-44
2023/12/18 14:51:52;;;;;;;;;;;;;;;;;;4974296;28;19910;-42
2023/12/18 14:54:18;;;;;;;;;;;;;;;;;;4986850;28;20004;-43
2023/12/18 14:56:52;;;;;;;;;;;;;;;;;;4973331;28;19915;-45
2023/12/18 14:59:18;;;;;;;;;;;;;;;;;;4967472;28;19917;-43
2023/12/18 15:01:44;;;;;;;;;;;;;;;;;;4967218;28;19926;-43
2023/12/18 15:04:10;;;;;;;;;;;;;;;;;;4981972;28;20373;-43
2023/12/18 15:06:36;;;;;;;;;;;;;;;;;;4984035;28;20009;-42
2023/12/18 15:09:02;;;;;;;;;;;;;;;;;;4982230;28;20388;-42
2023/12/18 15:11:28;;;;;;;;;;;;;;;;;;4986175;28;20004;-44
2023/12/18 15:13:54;;;;;;;;;;;;;;;;;;4984967;28;20016;-44
2023/12/18 15:16:20;;;;;;;;;;;;;;;;;;4982438;28;20111;-43
2023/12/18 15:18:46;;;;;;;;;;;;;;;;;;4984779;28;19914;-43
2023/12/18 15:21:12;;;;;;;;;;;;;;;;;;4987095;28;20364;-42
2023/12/18 15:23:37;;;;;;;;;;;;;;;;;;4991885;28;19955;-43
2023/12/18 15:26:03;;;;;;;;;;;;;;;;;;4998090;28;19955;-42
2023/12/18 15:28:29;;;;;;;;;;;;;;;;;;5001184;28;19918;-43
2023/12/18 15:30:55;;;;;;;;;;;;;;;;;;5004645;28;19910;-42
2023/12/18 15:33:21;;;;;;;;;;;;;;;;;;4997858;28;19918;-42
2023/12/18 15:35:47;;;;;;;;;;;;;;;;;;4989646;28;20393;-41
2023/12/18 15:38:13;;;;;;;;;;;;;;;;;;4991101;28;19924;-42
2023/12/18 15:40:39;;;;;;;;;;;;;;;;;;4991399;28;19914;-43
2023/12/18 15:43:05;;;;;;;;;;;;;;;;;;4986944;28;19918;-42
2023/12/18 15:45:31;;;;;;;;;;;;;;;;;;4985240;28;20045;-43
2023/12/18 15:47:57;;;;;;;;;;;;;;;;;;4990690;28;19921;-42
2023/12/18 15:50:23;;;;;;;;;;;;;;;;;;4991454;28;19917;-42
2023/12/18 15:52:49;;;;;;;;;;;;;;;;;;4989148;28;19917;-42
2023/12/18 15:55:14;;;;;;;;;;;;;;;;;;4991496;28;19910;-42
2023/12/18 15:57:40;;;;;;;;;;;;;;;;;;4987194;28;19928;-41
2023/12/18 16:00:07;;;;;;;;;;;;;;;;;;4986855;28;19910;-41
2023/12/18 16:02:33;;;;;;;;;;;;;;;;;;4989828;28;20250;-42
2023/12/18 16:04:59;;;;;;;;;;;;;;;;;;4989945;28;19968;-42
2023/12/18 16:07:25;;;;;;;;;;;;;;;;;;4990702;28;19917;-42
2023/12/18 16:09:51;;;;;;;;;;;;;;;;;;4988389;28;20472;-42
2023/12/18 16:12:17;;;;;;;;;;;;;;;;;;4991520;28;19916;-42
2023/12/18 16:14:43;;;;;;;;;;;;;;;;;;4989055;28;19917;-42
2023/12/18 16:17:09;;;;;;;;;;;;;;;;;;4989298;28;19921;-43
2023/12/18 16:19:34;;;;;;;;;;;;;;;;;;4988777;28;19941;-43
2023/12/18 16:22:00;;;;;;;;;;;;;;;;;;4989857;28;19968;-42
2023/12/18 16:24:26;;;;;;;;;;;;;;;;;;4991043;28;19952;-42
2023/12/18 16:26:52;;;;;;;;;;;;;;;;;;4989740;28;20377;-42
2023/12/18 16:29:18;;;;;;;;;;;;;;;;;;4989331;28;20008;-42
2023/12/18 16:31:44;;;;;;;;;;;;;;;;;;4993342;28;19918;-43
2023/12/18 16:34:10;;;;;;;;;;;;;;;;;;4989889;28;20329;-43
2023/12/18 16:36:36;;;;;;;;;;;;;;;;;;4990684;28;19963;-42
2023/12/18 16:39:02;;;;;;;;;;;;;;;;;;4987783;28;19922;-41
2023/12/18 16:41:28;;;;;;;;;;;;;;;;;;4989820;28;19956;-42
2023/12/18 16:43:54;;;;;;;;;;;;;;;;;;4989475;28;19944;-41
2023/12/18 16:46:20;;;;;;;;;;;;;;;;;;4989987;28;19921;-42
2023/12/18 16:48:45;;;;;;;;;;;;;;;;;;4987115;28;19914;-42
2023/12/18 16:51:12;;;;;;;;;;;;;;;;;;4989345;28;19917;-42
2023/12/18 16:53:38;;;;;;;;;;;;;;;;;;4988728;28;20303;-42
2023/12/18 16:56:03;;;;;;;;;;;;;;;;;;4988916;28;19928;-42
2023/12/18 16:58:29;;;;;;;;;;;;;;;;;;4996890;28;19914;-42
2023/12/18 17:00:55;;;;;;;;;;;;;;;;;;4982656;28;19918;-42
2023/12/18 17:03:21;;;;;;;;;;;;;;;;;;4983679;28;19914;-42
2023/12/18 17:05:47;;;;;;;;;;;;;;;;;;4988484;28;20395;-41
2023/12/18 17:08:13;;;;;;;;;;;;;;;;;;4985211;28;20193;-41
2023/12/18 17:10:39;;;;;;;;;;;;;;;;;;4977444;28;19914;-42
2023/12/18 17:13:05;;;;;;;;;;;;;;;;;;4981083;28;20412;-42
2023/12/18 17:15:31;;;;;;;;;;;;;;;;;;4989424;28;19918;-42
2023/12/18 17:17:57;;;;;;;;;;;;;;;;;;4987494;28;19916;-41
2023/12/18 17:20:23;;;;;;;;;;;;;;;;;;4988647;28;20619;-42
2023/12/18 17:22:49;;;;;;;;;;;;;;;;;;4988732;28;19954;-41
2023/12/18 17:25:15;;;;;;;;;;;;;;;;;;4990219;28;20273;-42
2023/12/18 17:27:40;;;;;;;;;;;;;;;;;;4990132;28;20000;-41
2023/12/18 17:30:06;;;;;;;;;;;;;;;;;;4988176;28;20846;-42
2023/12/18 17:32:32;;;;;;;;;;;;;;;;;;4989011;28;19921;-42
2023/12/18 17:34:58;;;;;;;;;;;;;;;;;;4990401;28;20376;-42
2023/12/18 17:37:24;;;;;;;;;;;;;;;;;;4982137;28;20041;-42
2023/12/18 17:39:50;;;;;;;;;;;;;;;;;;4985941;28;19914;-43
2023/12/18 17:42:16;;;;;;;;;;;;;;;;;;4989271;28;20539;-42
2023/12/18 17:44:42;;;;;;;;;;;;;;;;;;4987579;28;20044;-42
2023/12/18 17:47:09;;;;;;;;;;;;;;;;;;4987928;28;20316;-41
2023/12/18 17:49:37;;;;;;;;;;;;;;;;;;4986474;28;19921;-41
2023/12/18 17:52:03;;;;;;;;;;;;;;;;;;4980041;28;19910;-41
2023/12/18 17:54:29;;;;;;;;;;;;;;;;;;4978855;28;19921;-42
2023/12/18 17:56:54;;;;;;;;;;;;;;;;;;4987907;28;19914;-42
2023/12/18 17:59:20;;;;;;;;;;;;;;;;;;4988767;28;19953;-42
2023/12/18 18:01:46;;;;;;;;;;;;;;;;;;4986937;28;19922;-42
2023/12/18 18:04:12;;;;;;;;;;;;;;;;;;4985074;28;19913;-42
2023/12/18 18:06:40;;;;;;;;;;;;;;;;;;4986059;28;20289;-41
2023/12/18 18:09:06;;;;;;;;;;;;;;;;;;4986434;28;19972;-42
2023/12/18 18:11:31;;;;;;;;;;;;;;;;;;4988165;28;20388;-41
2023/12/18 18:13:59;;;;;;;;;;;;;;;;;;4986475;28;19914;-43
2023/12/18 18:16:25;;;;;;;;;;;;;;;;;;4973472;28;20174;-42
2023/12/18 18:18:51;;;;;;;;;;;;;;;;;;4985312;28;19918;-42
2023/12/18 18:21:18;;;;;;;;;;;;;;;;;;4984664;28;19944;-41
2023/12/18 18:23:44;;;;;;;;;;;;;;;;;;4985921;28;19975;-42
2023/12/18 18:26:10;;;;;;;;;;;;;;;;;;4986657;28;19914;-42
2023/12/18 18:28:38;;;;;;;;;;;;;;;;;;4984451;28;19922;-42
2023/12/18 18:31:04;;;;;;;;;;;;;;;;;;4985914;28;20016;-42
2023/12/18 18:33:32;;;;;;;;;;;;;;;;;;4983660;28;20000;-42
2023/12/18 18:35:58;;;;;;;;;;;;;;;;;;4982718;28;19920;-42
2023/12/18 18:38:25;;;;;;;;;;;;;;;;;;4984658;28;20008;-42
2023/12/18 18:40:51;;;;;;;;;;;;;;;;;;4974644;28;20282;-41
2023/12/18 18:43:17;;;;;;;;;;;;;;;;;;4984354;28;20146;-42
2023/12/18 18:45:42;;;;;;;;;;;;;;;;;;4986919;28;19921;-42
2023/12/18 18:48:11;;;;;;;;;;;;;;;;;;4985621;28;19956;-42
2023/12/18 18:50:37;;;;;;;;;;;;;;;;;;4984774;28;20373;-41
2023/12/18 18:53:05;;;;;;;;;;;;;;;;;;4985619;28;20288;-41
2023/12/18 18:55:31;;;;;;;;;;;;;;;;;;4986678;28;19914;-41
2023/12/18 18:57:57;;;;;;;;;;;;;;;;;;4989666;28;19914;-41
2023/12/18 19:00:22;;;;;;;;;;;;;;;;;;4990407;28;19909;-41
2023/12/18 19:02:49;;;;;;;;;;;;;;;;;;4987800;28;19917;-40
2023/12/18 19:05:15;;;;;;;;;;;;;;;;;;4988249;28;19910;-42
2023/12/18 19:07:42;;;;;;;;;;;;;;;;;;4985356;28;19914;-42
2023/12/18 19:10:08;;;;;;;;;;;;;;;;;;4987404;28;19921;-43
2023/12/18 19:12:39;;;;;;;;;;;;;;;;;;4983620;28;20012;-43
2023/12/18 19:15:05;;;;;;;;;;;;;;;;;;4987412;28;20056;-42
2023/12/18 19:17:31;;;;;;;;;;;;;;;;;;4987441;28;20545;-41
2023/12/18 19:19:57;;;;;;;;;;;;;;;;;;4984992;28;20342;-42
2023/12/18 19:22:23;;;;;;;;;;;;;;;;;;4986640;28;20012;-41
2023/12/18 19:24:49;;;;;;;;;;;;;;;;;;4987211;28;20049;-43
2023/12/18 19:27:17;;;;;;;;;;;;;;;;;;4984621;28;19914;-42
2023/12/18 19:29:42;;;;;;;;;;;;;;;;;;4985280;28;20063;-42
2023/12/18 19:32:08;;;;;;;;;;;;;;;;;;4980088;28;20366;-42
2023/12/18 19:34:34;;;;;;;;;;;;;;;;;;4987679;28;19913;-42
2023/12/18 19:37:00;;;;;;;;;;;;;;;;;;4983394;28;20300;-42
2023/12/18 19:39:26;;;;;;;;;;;;;;;;;;4989254;28;19921;-42
2023/12/18 19:41:52;;;;;;;;;;;;;;;;;;4979677;28;19949;-41
2023/12/18 19:44:20;;;;;;;;;;;;;;;;;;4980883;28;19914;-42
2023/12/18 19:46:47;;;;;;;;;;;;;;;;;;4983394;28;19916;-43
2023/12/18 19:49:15;;;;;;;;;;;;;;;;;;4987509;28;19918;-43
2023/12/18 19:51:41;;;;;;;;;;;;;;;;;;4989741;28;19910;-42
2023/12/18 19:54:07;;;;;;;;;;;;;;;;;;4988120;28;20234;-43
2023/12/18 19:56:33;;;;;;;;;;;;;;;;;;4987679;28;20372;-42
2023/12/18 19:58:59;;;;;;;;;;;;;;;;;;4988721;28;19925;-42
2023/12/18 20:01:25;;;;;;;;;;;;;;;;;;4987380;28;20520;-42
2023/12/18 20:03:52;;;;;;;;;;;;;;;;;;4989021;28;19953;-41
2023/12/18 20:06:18;;;;;;;;;;;;;;;;;;4989630;28;19996;-41
2023/12/18 20:08:44;;;;;;;;;;;;;;;;;;4987618;28;19949;-41
2023/12/18 20:11:11;;;;;;;;;;;;;;;;;;4987125;28;19913;-41
2023/12/18 20:13:37;;;;;;;;;;;;;;;;;;4989391;28;19984;-43
2023/12/18 20:16:03;;;;;;;;;;;;;;;;;;4986168;28;19917;-41
2023/12/18 20:18:29;;;;;;;;;;;;;;;;;;4985896;28;19921;-42
2023/12/18 20:20:55;;;;;;;;;;;;;;;;;;4989231;28;20568;-42
2023/12/18 20:23:20;;;;;;;;;;;;;;;;;;4977649;28;19937;-42
2023/12/18 20:25:46;;;;;;;;;;;;;;;;;;4982463;28;19914;-43
2023/12/18 20:28:12;;;;;;;;;;;;;;;;;;4990293;28;19916;-42
2023/12/18 20:30:38;;;;;;;;;;;;;;;;;;4990749;28;19910;-43
2023/12/18 20:33:04;;;;;;;;;;;;;;;;;;4981504;28;20403;-43
2023/12/18 20:35:30;;;;;;;;;;;;;;;;;;4989206;28;19913;-42
2023/12/18 20:37:56;;;;;;;;;;;;;;;;;;4989075;28;20408;-42
2023/12/18 20:40:22;;;;;;;;;;;;;;;;;;4987600;28;19925;-42
2023/12/18 20:42:49;;;;;;;;;;;;;;;;;;4986788;28;20299;-43
2023/12/18 20:45:17;;;;;;;;;;;;;;;;;;4989055;28;20427;-42
2023/12/18 20:47:42;;;;;;;;;;;;;;;;;;4987000;28;20549;-42
2023/12/18 20:50:08;;;;;;;;;;;;;;;;;;4987585;28;19914;-43
2023/12/18 20:52:35;;;;;;;;;;;;;;;;;;4987176;28;20004;-43
2023/12/18 20:55:05;;;;;;;;;;;;;;;;;;4986112;28;20391;-43
2023/12/18 20:57:31;;;;;;;;;;;;;;;;;;4988406;28;19914;-43
2023/12/18 20:59:57;;;;;;;;;;;;;;;;;;4983092;28;19924;-43
2023/12/18 21:02:23;;;;;;;;;;;;;;;;;;4987733;28;19917;-42
2023/12/18 21:04:49;;;;;;;;;;;;;;;;;;4986917;28;19984;-42
2023/12/18 21:07:15;;;;;;;;;;;;;;;;;;4987007;28;20393;-41
2023/12/18 21:09:44;;;;;;;;;;;;;;;;;;4987851;28;19957;-41
2023/12/18 21:12:10;;;;;;;;;;;;;;;;;;4986314;28;19964;-43
2023/12/18 21:14:36;;;;;;;;;;;;;;;;;;4988158;28;19945;-42
2023/12/18 21:17:02;;;;;;;;;;;;;;;;;;4983802;28;19913;-41
2023/12/18 21:19:28;;;;;;;;;;;;;;;;;;4985713;28;19913;-42
2023/12/18 21:21:55;;;;;;;;;;;;;;;;;;4987280;28;19918;-42
2023/12/18 21:24:21;;;;;;;;;;;;;;;;;;4976985;28;20530;-42
2023/12/18 21:26:47;;;;;;;;;;;;;;;;;;4987046;28;19914;-42
2023/12/18 21:29:12;;;;;;;;;;;;;;;;;;4982871;28;19921;-42
2023/12/18 21:31:38;;;;;;;;;;;;;;;;;;4986094;28;19932;-42
2023/12/18 21:34:05;;;;;;;;;;;;;;;;;;4987619;28;19917;-41
2023/12/18 21:36:31;;;;;;;;;;;;;;;;;;4988572;28;19922;-42
2023/12/18 21:38:57;;;;;;;;;;;;;;;;;;4987464;28;19914;-42
2023/12/18 21:41:23;;;;;;;;;;;;;;;;;;4986814;28;19918;-41
2023/12/18 21:43:49;;;;;;;;;;;;;;;;;;4985016;28;20302;-42
2023/12/18 21:46:15;;;;;;;;;;;;;;;;;;4979683;28;19936;-41
2023/12/18 21:48:44;;;;;;;;;;;;;;;;;;4987227;28;19917;-41
2023/12/18 21:51:12;;;;;;;;;;;;;;;;;;4986645;28;19920;-41
2023/12/18 21:53:38;;;;;;;;;;;;;;;;;;4987197;28;19914;-41
2023/12/18 21:56:04;;;;;;;;;;;;;;;;;;4987144;28;20278;-41
2023/12/18 21:58:30;;;;;;;;;;;;;;;;;;4985867;28;20000;-42
2023/12/18 22:00:56;;;;;;;;;;;;;;;;;;4987615;28;20693;-42
2023/12/18 22:03:22;;;;;;;;;;;;;;;;;;4986431;28;20528;-43
2023/12/18 22:05:48;;;;;;;;;;;;;;;;;;4987636;28;19918;-42
2023/12/18 22:08:14;;;;;;;;;;;;;;;;;;4982709;28;20356;-42
2023/12/18 22:10:40;;;;;;;;;;;;;;;;;;4985970;28;19921;-41
2023/12/18 22:13:06;;;;;;;;;;;;;;;;;;4985456;28;20439;-41
2023/12/18 22:15:32;;;;;;;;;;;;;;;;;;4984790;28;19950;-42
2023/12/18 22:17:58;;;;;;;;;;;;;;;;;;4987010;28;19917;-42
2023/12/18 22:20:23;;;;;;;;;;;;;;;;;;4985750;28;19949;-42
2023/12/18 22:22:49;;;;;;;;;;;;;;;;;;4987089;28;19957;-42
2023/12/18 22:25:15;;;;;;;;;;;;;;;;;;4986704;28;20311;-42
2023/12/18 22:27:41;;;;;;;;;;;;;;;;;;4987623;28;19957;-41
2023/12/18 22:30:07;;;;;;;;;;;;;;;;;;4989378;28;20542;-41
2023/12/18 22:32:33;;;;;;;;;;;;;;;;;;4990022;28;20315;-41
2023/12/18 22:34:59;;;;;;;;;;;;;;;;;;4992172;28;19941;-42
2023/12/18 22:37:25;;;;;;;;;;;;;;;;;;4991744;28;19968;-42